createdAt,value
2023-01-21T00:01:03.854Z,-0.94
2023-01-21T00:03:30.628Z,-1.11
2023-01-21T00:05:58.434Z,-1.06
2023-01-21T00:08:25.666Z,-0.97
2023-01-21T00:10:52.364Z,-1.01
2023-01-21T00:13:19.005Z,-0.96
2023-01-21T00:15:45.923Z,-0.88
2023-01-21T00:18:14.138Z,-0.91
2023-01-21T00:20:40.901Z,-1.04
2023-01-21T00:23:07.482Z,-0.99
2023-01-21T00:25:34.133Z,-1.04
2023-01-21T00:28:01.235Z,-1.06
2023-01-21T00:30:27.999Z,-0.91
2023-01-21T00:32:54.638Z,-0.92
2023-01-21T00:35:21.211Z,-0.89
2023-01-21T00:37:47.798Z,-0.92
2023-01-21T00:40:14.800Z,-0.99
2023-01-21T00:42:41.712Z,-1.03
2023-01-21T00:45:09.064Z,-1.01
2023-01-21T00:47:35.768Z,-0.96
2023-01-21T00:50:03.966Z,-0.91
2023-01-21T00:52:31.542Z,-1.08
2023-01-21T00:54:58.187Z,-1.00
2023-01-21T00:57:25.052Z,-0.95
2023-01-21T00:59:53.559Z,-1.06
2023-01-21T01:02:20.180Z,-0.97
2023-01-21T01:04:46.816Z,-0.90
2023-01-21T01:07:13.571Z,-0.93
2023-01-21T01:09:40.164Z,-0.98
2023-01-21T01:12:06.951Z,-0.71
2023-01-21T01:14:33.621Z,-0.86
2023-01-21T01:17:00.259Z,-1.01
2023-01-21T01:19:27.034Z,-1.00
2023-01-21T01:21:53.648Z,-0.94
2023-01-21T01:24:20.252Z,-0.97
2023-01-21T01:26:46.975Z,-1.00
2023-01-21T01:29:13.678Z,-1.05
2023-01-21T01:31:40.436Z,-1.01
2023-01-21T01:34:07.127Z,-1.00
2023-01-21T01:36:33.796Z,-0.91
2023-01-21T01:39:00.437Z,-1.01
2023-01-21T01:41:29.898Z,-1.08
2023-01-21T01:44:26.649Z,-1.05
2023-01-21T01:46:55.149Z,-1.18
2023-01-21T01:49:22.225Z,-1.24
2023-01-21T01:51:55.096Z,-1.15
2023-01-21T01:54:29.092Z,-1.27
2023-01-21T01:56:58.734Z,-1.38
2023-01-21T01:59:25.589Z,-1.43
2023-01-21T02:01:52.719Z,-1.53
2023-01-21T02:04:26.413Z,-1.67
2023-01-21T02:06:54.718Z,-1.56
2023-01-21T02:09:22.125Z,-1.58
2023-01-21T02:11:49.007Z,-1.79
2023-01-21T02:14:15.687Z,-1.78
2023-01-21T02:16:51.064Z,-1.74
2023-01-21T02:19:38.950Z,-1.77
2023-01-21T02:22:26.628Z,-1.92
2023-01-21T02:24:56.178Z,-1.97
2023-01-21T02:27:47.262Z,-2.04
2023-01-21T02:30:30.467Z,-2.17
2023-01-21T02:33:01.127Z,-2.14
2023-01-21T02:35:41.613Z,-2.12
2023-01-21T02:38:17.459Z,-2.27
2023-01-21T02:40:50.388Z,-2.10
2023-01-21T02:43:32.710Z,-2.33
2023-01-21T02:46:18.071Z,-2.34
2023-01-21T02:48:57.527Z,-2.37
2023-01-21T02:51:24.696Z,-2.44
2023-01-21T02:53:51.424Z,-2.49
2023-01-21T02:56:21.975Z,-2.50
2023-01-21T02:58:56.105Z,-2.43
2023-01-21T03:01:51.187Z,-2.24
2023-01-21T03:04:46.739Z,-2.34
2023-01-21T03:07:22.644Z,-2.23
2023-01-21T03:09:49.523Z,-2.25
2023-01-21T03:12:39.287Z,-2.28
2023-01-21T03:15:48.273Z,-2.11
2023-01-21T03:18:30.298Z,-2.21
2023-01-21T03:21:01.086Z,-2.34
2023-01-21T03:23:31.276Z,-2.31
2023-01-21T03:25:58.795Z,-2.20
2023-01-21T03:28:29.605Z,-2.29
2023-01-21T03:31:05.682Z,-2.42
2023-01-21T03:33:36.249Z,-2.43
2023-01-21T03:36:08.524Z,-2.34
2023-01-21T03:38:37.755Z,-2.43
2023-01-21T03:41:08.935Z,-2.36
2023-01-21T03:43:35.631Z,-2.30
2023-01-21T03:46:20.500Z,-2.32
2023-01-21T03:48:53.414Z,-2.45
2023-01-21T03:51:22.962Z,-2.41
2023-01-21T03:53:59.703Z,-2.52
2023-01-21T03:56:26.842Z,-2.55
2023-01-21T03:58:53.842Z,-2.52
2023-01-21T04:01:20.547Z,-2.64
2023-01-21T04:03:47.285Z,-2.58
2023-01-21T04:06:21.511Z,-2.55
2023-01-21T04:08:48.727Z,-2.65
2023-01-21T04:11:15.566Z,-2.71
2023-01-21T04:13:42.526Z,-2.58
2023-01-21T04:16:09.311Z,-2.58
2023-01-21T04:18:36.105Z,-2.65
2023-01-21T04:21:02.742Z,-2.51
2023-01-21T04:23:29.375Z,-2.58
2023-01-21T04:25:56.030Z,-2.68
2023-01-21T04:28:22.657Z,-2.67
2023-01-21T04:30:49.776Z,-2.66
2023-01-21T04:33:17.017Z,-2.73
2023-01-21T04:35:43.618Z,-2.72
2023-01-21T04:38:10.415Z,-2.69
2023-01-21T04:40:37.165Z,-2.77
2023-01-21T04:43:03.925Z,-2.75
2023-01-21T04:45:30.572Z,-2.81
2023-01-21T04:47:57.208Z,-2.91
2023-01-21T04:50:23.874Z,-3.00
2023-01-21T04:52:50.481Z,-3.08
2023-01-21T04:55:17.203Z,-3.02
2023-01-21T04:57:43.828Z,-3.07
2023-01-21T05:00:10.863Z,-3.13
2023-01-21T05:02:37.686Z,-3.17
2023-01-21T05:05:04.709Z,-3.00
2023-01-21T05:07:31.480Z,-2.92
2023-01-21T05:09:58.116Z,-2.93
2023-01-21T05:12:24.775Z,-2.90
2023-01-21T05:14:54.982Z,-2.78
2023-01-21T05:17:21.821Z,-2.85
2023-01-21T05:19:48.638Z,-2.87
2023-01-21T05:22:15.251Z,-2.71
2023-01-21T05:24:41.859Z,-2.67
2023-01-21T05:27:08.612Z,-2.66
2023-01-21T05:29:35.276Z,-2.66
2023-01-21T05:32:02.054Z,-2.72
2023-01-21T05:34:28.829Z,-2.66
2023-01-21T05:36:55.431Z,-2.58
2023-01-21T05:39:22.105Z,-2.57
2023-01-21T05:41:48.706Z,-2.53
2023-01-21T05:44:17.578Z,-2.66
2023-01-21T05:46:44.390Z,-2.47
2023-01-21T05:49:11.041Z,-2.47
2023-01-21T05:51:37.661Z,-2.34
2023-01-21T05:54:04.523Z,-2.20
2023-01-21T05:56:31.139Z,-2.19
2023-01-21T05:58:57.773Z,-2.15
2023-01-21T06:01:24.616Z,-1.89
2023-01-21T06:03:51.264Z,-1.85
2023-01-21T06:06:17.858Z,-1.74
2023-01-21T06:08:44.556Z,-1.73
2023-01-21T06:11:11.211Z,-1.49
2023-01-21T06:13:37.837Z,-1.29
2023-01-21T06:16:04.791Z,-1.01
2023-01-21T06:18:31.408Z,-0.96
2023-01-21T06:21:01.052Z,-0.79
2023-01-21T06:23:27.754Z,-0.73
2023-01-21T06:25:54.335Z,-0.63
2023-01-21T06:28:20.970Z,-0.60
2023-01-21T06:30:47.686Z,-0.61
2023-01-21T06:33:14.553Z,-0.57
2023-01-21T06:35:41.130Z,-0.49
2023-01-21T06:38:07.778Z,-0.46
2023-01-21T06:40:34.611Z,-0.48
2023-01-21T06:43:01.324Z,-0.58
2023-01-21T06:45:28.357Z,-0.57
2023-01-21T06:47:55.126Z,-0.50
2023-01-21T06:50:21.919Z,-0.50
2023-01-21T06:52:49.134Z,-0.40
2023-01-21T06:55:16.657Z,-0.41
2023-01-21T06:57:44.133Z,-0.43
2023-01-21T07:00:11.749Z,-0.47
2023-01-21T07:02:40.930Z,-0.50
2023-01-21T07:05:08.032Z,-0.45
2023-01-21T07:07:34.903Z,-0.51
2023-01-21T07:10:01.699Z,-0.47
2023-01-21T07:12:28.492Z,-0.57
2023-01-21T07:14:55.177Z,-0.57
2023-01-21T07:17:23.220Z,-0.68
2023-01-21T07:19:49.896Z,-0.68
2023-01-21T07:22:16.714Z,-0.72
2023-01-21T07:24:43.453Z,-0.64
2023-01-21T07:27:10.792Z,-0.69
2023-01-21T07:29:37.751Z,-0.69
2023-01-21T07:32:04.894Z,-0.66
2023-01-21T07:34:31.664Z,-0.75
2023-01-21T07:36:58.387Z,-0.81
2023-01-21T07:39:25.277Z,-0.81
2023-01-21T07:41:52.020Z,-0.88
2023-01-21T07:44:18.728Z,-0.97
2023-01-21T07:46:45.469Z,-1.01
2023-01-21T07:49:17.514Z,-1.04
2023-01-21T07:51:45.667Z,-1.08
2023-01-21T07:54:12.856Z,-1.04
2023-01-21T07:56:39.578Z,-1.10
2023-01-21T07:59:06.493Z,-1.07
2023-01-21T08:01:33.431Z,-1.08
2023-01-21T08:04:01.140Z,-1.16
2023-01-21T08:06:27.890Z,-1.24
2023-01-21T08:08:54.650Z,-1.21
2023-01-21T08:11:21.305Z,-1.27
2023-01-21T08:13:49.756Z,-1.20
2023-01-21T08:16:16.489Z,-1.05
2023-01-21T08:18:43.366Z,-1.09
2023-01-21T08:21:10.007Z,-1.00
2023-01-21T08:23:36.694Z,-1.00
2023-01-21T08:26:04.315Z,-0.91
2023-01-21T08:28:31.097Z,-0.96
2023-01-21T08:31:10.104Z,-0.75
2023-01-21T08:33:37.127Z,-0.78
2023-01-21T08:36:06.147Z,-0.74
2023-01-21T08:38:33.458Z,-0.81
2023-01-21T08:41:00.253Z,-0.63
2023-01-21T08:43:28.496Z,-0.60
2023-01-21T08:45:56.743Z,-0.50
2023-01-21T08:48:23.589Z,-0.44
2023-01-21T08:50:50.331Z,-0.52
2023-01-21T08:53:17.105Z,-0.44
2023-01-21T08:55:44.117Z,-0.36
2023-01-21T08:58:11.049Z,-0.41
2023-01-21T09:00:37.892Z,-0.35
2023-01-21T09:03:04.862Z,-0.28
2023-01-21T09:05:31.570Z,-0.20
2023-01-21T09:07:58.422Z,-0.12
2023-01-21T09:10:43.867Z,-0.05
2023-01-21T09:13:11.212Z,-0.07
2023-01-21T09:15:39.588Z,-0.13
2023-01-21T09:18:06.625Z,-0.09
2023-01-21T09:20:33.239Z,-0.10
2023-01-21T09:22:59.845Z,-0.07
2023-01-21T09:25:26.724Z,0.07
2023-01-21T09:27:53.543Z,-0.02
2023-01-21T09:30:20.325Z,0.13
2023-01-21T09:32:47.067Z,0.11
2023-01-21T09:35:13.921Z,0.15
2023-01-21T09:37:40.688Z,0.17
2023-01-21T09:40:13.819Z,0.32
2023-01-21T09:42:42.702Z,0.34
2023-01-21T09:45:14.358Z,0.39
2023-01-21T09:47:42.740Z,0.36
2023-01-21T09:50:23.066Z,0.36
2023-01-21T09:52:54.680Z,0.37
2023-01-21T09:55:40.556Z,0.42
2023-01-21T09:58:23.961Z,0.61
2023-01-21T10:00:58.777Z,0.66
2023-01-21T10:04:06.949Z,0.71
2023-01-21T10:06:38.667Z,0.80
2023-01-21T10:09:27.450Z,0.76
2023-01-21T10:12:12.408Z,0.75
2023-01-21T10:14:49.058Z,0.75
2023-01-21T10:17:33.967Z,0.87
2023-01-21T10:20:12.068Z,0.90
2023-01-21T10:22:42.889Z,0.95
2023-01-21T10:25:20.470Z,1.10
2023-01-21T10:27:49.003Z,1.05
2023-01-21T10:30:25.307Z,1.18
2023-01-21T10:32:53.613Z,1.18
2023-01-21T10:35:44.058Z,1.28
2023-01-21T10:38:18.263Z,1.24
2023-01-21T10:41:16.821Z,1.46
2023-01-21T10:44:14.791Z,1.44
2023-01-21T10:47:01.897Z,1.48
2023-01-21T10:49:28.909Z,1.34
2023-01-21T10:52:14.153Z,1.61
2023-01-21T10:54:48.317Z,1.60
2023-01-21T10:57:15.014Z,1.73
2023-01-21T10:59:42.319Z,1.75
2023-01-21T11:02:08.970Z,1.81
2023-01-21T11:04:40.924Z,1.72
2023-01-21T11:07:13.364Z,1.97
2023-01-21T11:09:46.155Z,1.89
2023-01-21T11:12:17.479Z,2.09
2023-01-21T11:14:49.083Z,1.94
2023-01-21T11:17:30.330Z,2.02
2023-01-21T11:20:02.040Z,2.12
2023-01-21T11:22:32.636Z,2.24
2023-01-21T11:25:00.652Z,2.12
2023-01-21T11:27:28.353Z,2.10
2023-01-21T11:29:55.151Z,2.33
2023-01-21T11:32:27.391Z,2.34
2023-01-21T11:35:09.644Z,2.25
2023-01-21T11:37:37.931Z,2.18
2023-01-21T11:40:14.097Z,2.32
2023-01-21T11:42:49.105Z,2.26
2023-01-21T11:45:28.033Z,2.26
2023-01-21T11:47:55.015Z,2.32
2023-01-21T11:50:30.650Z,2.21
2023-01-21T11:53:18.360Z,2.29
2023-01-21T11:55:50.764Z,2.29
2023-01-21T11:58:19.512Z,2.31
2023-01-21T12:00:48.279Z,2.35
2023-01-21T12:03:18.621Z,2.33
2023-01-21T12:05:48.639Z,2.41
2023-01-21T12:08:23.144Z,2.39
2023-01-21T12:10:50.985Z,2.48
2023-01-21T12:13:17.608Z,2.48
2023-01-21T12:16:06.229Z,2.52
2023-01-21T12:18:41.991Z,2.61
2023-01-21T12:21:51.521Z,2.50
2023-01-21T12:24:21.283Z,2.54
2023-01-21T12:27:03.798Z,2.40
2023-01-21T12:29:45.684Z,2.47
2023-01-21T12:32:23.694Z,2.56
2023-01-21T12:35:11.926Z,2.50
2023-01-21T12:37:49.343Z,2.53
2023-01-21T12:40:24.767Z,2.57
2023-01-21T12:42:57.559Z,2.66
2023-01-21T12:45:29.079Z,2.58
2023-01-21T12:48:16.548Z,2.63
2023-01-21T12:50:46.103Z,2.63
2023-01-21T12:53:17.759Z,2.62
2023-01-21T12:56:12.351Z,2.57
2023-01-21T12:58:43.064Z,2.56
2023-01-21T13:01:14.385Z,2.50
2023-01-21T13:04:04.266Z,2.47
2023-01-21T13:06:53.118Z,2.46
2023-01-21T13:09:46.050Z,2.52
2023-01-21T13:12:20.356Z,2.55
2023-01-21T13:14:48.613Z,2.56
2023-01-21T13:17:19.377Z,2.51
2023-01-21T13:19:45.987Z,2.57
2023-01-21T13:22:15.736Z,2.54
2023-01-21T13:25:19.969Z,2.63
2023-01-21T13:28:20.188Z,2.62
2023-01-21T13:30:56.014Z,2.51
2023-01-21T13:33:31.188Z,2.56
2023-01-21T13:36:16.319Z,2.49
2023-01-21T13:38:51.922Z,2.62
2023-01-21T13:41:41.230Z,2.56
2023-01-21T13:44:23.146Z,2.50
2023-01-21T13:47:17.960Z,2.54
2023-01-21T13:49:57.973Z,2.55
2023-01-21T13:52:31.558Z,2.47
2023-01-21T13:55:04.180Z,2.56
2023-01-21T13:57:53.786Z,2.50
2023-01-21T14:00:24.007Z,2.47
2023-01-21T14:02:56.636Z,2.53
2023-01-21T14:05:28.239Z,2.50
2023-01-21T14:08:06.226Z,2.55
2023-01-21T14:11:06.975Z,2.49
2023-01-21T14:13:45.747Z,2.52
2023-01-21T14:16:25.256Z,2.49
2023-01-21T14:19:24.377Z,2.54
2023-01-21T14:22:15.881Z,2.50
2023-01-21T14:24:55.727Z,2.51
2023-01-21T14:27:31.436Z,2.44
2023-01-21T14:30:14.495Z,2.35
2023-01-21T14:32:41.652Z,2.35
2023-01-21T14:35:24.377Z,2.42
2023-01-21T14:37:54.462Z,2.45
2023-01-21T14:40:29.561Z,2.33
2023-01-21T14:42:56.395Z,2.38
2023-01-21T14:45:25.900Z,2.41
2023-01-21T14:47:54.927Z,2.44
2023-01-21T14:50:51.454Z,2.43
2023-01-21T14:53:23.019Z,2.38
2023-01-21T14:56:08.844Z,2.38
2023-01-21T14:58:36.362Z,2.35
2023-01-21T15:01:04.630Z,2.36
2023-01-21T15:03:31.587Z,2.36
2023-01-21T15:06:01.967Z,2.35
2023-01-21T15:08:47.383Z,2.37
2023-01-21T15:11:20.899Z,2.36
2023-01-21T15:14:02.356Z,2.35
2023-01-21T15:16:42.991Z,2.38
2023-01-21T15:19:09.592Z,2.42
2023-01-21T15:21:59.046Z,2.40
2023-01-21T15:24:29.776Z,2.38
2023-01-21T15:27:13.881Z,2.40
2023-01-21T15:30:00.963Z,2.41
2023-01-21T15:32:31.491Z,2.37
2023-01-21T15:35:14.030Z,2.40
2023-01-21T15:37:44.626Z,2.40
2023-01-21T15:40:19.415Z,2.39
2023-01-21T15:43:15.047Z,2.48
2023-01-21T15:46:00.720Z,2.47
2023-01-21T15:48:52.971Z,2.50
2023-01-21T15:51:40.516Z,2.49
2023-01-21T15:54:22.391Z,2.48
2023-01-21T15:57:05.481Z,2.46
2023-01-21T15:59:47.432Z,2.47
2023-01-21T16:02:21.956Z,2.45
2023-01-21T16:04:48.496Z,2.39
2023-01-21T16:07:36.794Z,2.42
2023-01-21T16:10:22.989Z,2.47
2023-01-21T16:12:50.550Z,2.46
2023-01-21T16:15:39.265Z,2.36
2023-01-21T16:18:19.385Z,2.46
2023-01-21T16:20:48.839Z,2.48
2023-01-21T16:23:17.493Z,2.32
2023-01-21T16:25:48.788Z,2.16
2023-01-21T16:28:15.653Z,2.07
2023-01-21T16:30:56.133Z,1.96
2023-01-21T16:33:23.219Z,1.87
2023-01-21T16:35:52.252Z,1.86
2023-01-21T16:38:25.626Z,1.80
2023-01-21T16:41:14.854Z,1.73
2023-01-21T16:43:53.985Z,1.44
2023-01-21T16:46:34.387Z,1.54
2023-01-21T16:49:05.988Z,1.63
2023-01-21T16:51:36.487Z,1.55
2023-01-21T16:54:22.668Z,1.59
2023-01-21T16:56:54.031Z,1.59
2023-01-21T16:59:48.408Z,1.64
2023-01-21T17:02:19.631Z,1.58
2023-01-21T17:04:46.286Z,1.57
2023-01-21T17:07:22.081Z,1.59
2023-01-21T17:09:55.397Z,1.62
2023-01-21T17:12:24.468Z,1.61
2023-01-21T17:14:56.438Z,1.65
2023-01-21T17:17:23.860Z,1.66
2023-01-21T17:19:51.116Z,1.73
2023-01-21T17:22:20.988Z,1.68
2023-01-21T17:25:00.291Z,1.63
2023-01-21T17:27:27.413Z,1.75
2023-01-21T17:29:54.160Z,1.78
2023-01-21T17:32:26.680Z,1.79
2023-01-21T17:37:59.401Z,1.84
2023-01-21T17:40:31.841Z,1.87
2023-01-21T17:43:00.081Z,1.93
2023-01-21T17:45:36.664Z,1.86
2023-01-21T17:48:10.185Z,1.85
2023-01-21T17:50:46.097Z,1.86
2023-01-21T17:53:18.151Z,1.87
2023-01-21T17:55:56.322Z,1.84
2023-01-21T17:58:32.217Z,1.87
2023-01-21T18:01:03.801Z,1.93
2023-01-21T18:03:30.457Z,2.03
2023-01-21T18:05:57.305Z,2.00
2023-01-21T18:08:24.605Z,1.95
2023-01-21T18:10:51.302Z,2.08
2023-01-21T18:13:19.070Z,2.11
2023-01-21T18:15:51.566Z,2.07
2023-01-21T18:18:24.676Z,2.07
2023-01-21T18:20:51.255Z,1.93
2023-01-21T18:23:18.286Z,1.90
2023-01-21T18:25:50.867Z,1.98
2023-01-21T18:28:20.431Z,1.90
2023-01-21T18:30:47.752Z,1.98
2023-01-21T18:33:14.588Z,1.96
2023-01-21T18:35:44.073Z,2.01
2023-01-21T18:38:12.531Z,1.95
2023-01-21T18:40:40.448Z,1.86
2023-01-21T18:43:07.577Z,1.82
2023-01-21T18:45:36.263Z,1.78
2023-01-21T18:48:03.083Z,1.77
2023-01-21T18:50:30.266Z,1.73
2023-01-21T18:52:57.052Z,1.73
2023-01-21T18:55:27.541Z,1.86
2023-01-21T18:57:55.603Z,1.83
2023-01-21T19:00:27.973Z,1.71
2023-01-21T19:02:56.225Z,1.74
2023-01-21T19:05:28.015Z,1.73
2023-01-21T19:07:54.808Z,1.75
2023-01-21T19:10:21.420Z,1.75
2023-01-21T19:12:48.443Z,1.63
2023-01-21T19:15:17.302Z,1.62
2023-01-21T19:17:44.232Z,1.65
2023-01-21T19:20:25.333Z,1.64
2023-01-21T19:22:52.923Z,1.57
2023-01-21T19:25:20.869Z,1.54
2023-01-21T19:27:50.252Z,1.60
2023-01-21T19:30:25.915Z,1.55
2023-01-21T19:32:53.631Z,1.45
2023-01-21T19:35:26.763Z,1.49
2023-01-21T19:37:54.040Z,1.54
2023-01-21T19:40:26.723Z,1.51
2023-01-21T19:42:53.473Z,1.53
2023-01-21T19:45:20.845Z,1.61
2023-01-21T19:47:49.588Z,1.56
2023-01-21T19:50:24.963Z,1.59
2023-01-21T19:52:52.717Z,1.60
2023-01-21T19:55:22.809Z,1.56
2023-01-21T19:57:56.464Z,1.53
2023-01-21T20:00:25.586Z,1.50
2023-01-21T20:02:52.385Z,1.48
2023-01-21T20:05:19.852Z,1.54
2023-01-21T20:07:48.136Z,1.48
2023-01-21T20:10:20.863Z,1.47
2023-01-21T20:12:48.500Z,1.52
2023-01-21T20:15:17.856Z,1.54
2023-01-21T20:17:46.771Z,1.51
2023-01-21T20:20:14.418Z,1.51
2023-01-21T20:22:41.050Z,1.43
2023-01-21T20:25:08.051Z,1.44
2023-01-21T20:27:34.680Z,1.45
2023-01-21T20:30:15.125Z,1.38
2023-01-21T20:32:43.481Z,1.50
2023-01-21T20:35:10.764Z,1.51
2023-01-21T20:37:39.775Z,1.49
2023-01-21T20:40:06.972Z,1.35
2023-01-21T20:42:36.643Z,1.35
2023-01-21T20:45:03.385Z,1.34
2023-01-21T20:47:38.563Z,1.34
2023-01-21T20:50:23.988Z,1.33
2023-01-21T20:52:51.807Z,1.29
2023-01-21T20:55:20.897Z,1.22
2023-01-21T20:57:53.883Z,1.19
2023-01-21T21:00:26.349Z,1.16
2023-01-21T21:02:56.310Z,1.16
2023-01-21T21:05:23.998Z,1.19
2023-01-21T21:07:50.701Z,1.26
2023-01-21T21:10:26.082Z,1.18
2023-01-21T21:12:52.965Z,1.24
2023-01-21T21:15:20.459Z,1.19
2023-01-21T21:17:47.812Z,1.15
2023-01-21T21:20:22.815Z,1.18
2023-01-21T21:22:49.480Z,1.16
2023-01-21T21:25:17.939Z,1.20
2023-01-21T21:27:45.240Z,1.18
2023-01-21T21:30:29.465Z,1.12
2023-01-21T21:32:57.687Z,1.22
2023-01-21T21:35:27.387Z,1.12
2023-01-21T21:37:55.820Z,1.15
2023-01-21T21:40:25.323Z,1.20
2023-01-21T21:43:11.311Z,1.18
2023-01-21T21:45:40.840Z,1.18
2023-01-21T21:48:38.873Z,1.19
2023-01-21T21:51:10.291Z,1.15
2023-01-21T21:53:37.935Z,1.06
2023-01-21T21:56:07.281Z,1.09
2023-01-21T21:58:34.269Z,1.04
2023-01-21T22:01:14.525Z,0.96
2023-01-21T22:03:41.785Z,1.01
2023-01-21T22:06:09.172Z,0.94
2023-01-21T22:08:37.958Z,0.89
2023-01-21T22:11:09.434Z,0.84
2023-01-21T22:13:43.204Z,0.85
2023-01-21T22:16:14.538Z,0.71
2023-01-21T22:18:41.262Z,0.71
2023-01-21T22:21:24.836Z,0.63
2023-01-21T22:23:51.852Z,0.65
2023-01-21T22:26:20.987Z,0.65
2023-01-21T22:28:47.950Z,0.57
2023-01-21T22:31:25.746Z,0.55
2023-01-21T22:33:52.770Z,0.56
2023-01-21T22:36:21.060Z,0.60
2023-01-21T22:38:48.285Z,0.51
2023-01-21T22:41:16.443Z,0.55
2023-01-21T22:43:44.909Z,0.56
2023-01-21T22:46:13.478Z,0.42
2023-01-21T22:48:41.479Z,0.52
2023-01-21T22:51:11.220Z,0.50
2023-01-21T22:53:40.179Z,0.51
2023-01-21T22:56:07.342Z,0.50
2023-01-21T22:58:34.827Z,0.54
2023-01-21T23:01:02.058Z,0.71
2023-01-21T23:03:29.405Z,0.54
2023-01-21T23:06:05.475Z,0.67
2023-01-21T23:08:32.732Z,0.68
2023-01-21T23:11:01.366Z,0.67
2023-01-21T23:13:28.134Z,0.66
2023-01-21T23:15:54.853Z,0.62
2023-01-21T23:18:21.960Z,0.60
2023-01-21T23:20:48.811Z,0.55
2023-01-21T23:23:15.526Z,0.60
2023-01-21T23:25:43.402Z,0.64
2023-01-21T23:28:11.507Z,0.48
2023-01-21T23:30:38.192Z,0.42
2023-01-21T23:33:05.032Z,0.55
2023-01-21T23:35:34.431Z,0.58
2023-01-21T23:38:02.393Z,0.57
2023-01-21T23:40:28.995Z,0.53
2023-01-21T23:42:55.610Z,0.48
2023-01-21T23:45:22.200Z,0.49
2023-01-21T23:47:48.815Z,0.52
2023-01-21T23:50:15.778Z,0.46
2023-01-21T23:52:42.660Z,0.44
2023-01-21T23:55:10.649Z,0.48
2023-01-21T23:57:37.535Z,0.51
